createdAt,value
2018-01-14T00:00:23.118Z,4.9
2018-01-14T00:01:23.304Z,4.9
2018-01-14T00:02:23.157Z,4.89
2018-01-14T00:03:23.116Z,4.89
2018-01-14T00:04:23.340Z,4.89
2018-01-14T00:05:23.201Z,4.88
2018-01-14T00:06:23.120Z,4.88
2018-01-14T00:07:23.120Z,4.9
2018-01-14T00:08:23.127Z,4.89
2018-01-14T00:09:23.250Z,4.86
2018-01-14T00:10:23.146Z,4.84
2018-01-14T00:11:23.174Z,4.85
2018-01-14T00:12:23.159Z,4.86
2018-01-14T00:13:23.049Z,4.83
2018-01-14T00:14:23.278Z,4.83
2018-01-14T00:15:23.328Z,4.82
2018-01-14T00:16:23.253Z,4.8
2018-01-14T00:17:23.340Z,4.8
2018-01-14T00:18:23.371Z,4.79
2018-01-14T00:19:23.222Z,4.77
2018-01-14T00:20:23.268Z,4.75
2018-01-14T00:21:23.285Z,4.74
2018-01-14T00:22:23.372Z,4.73
2018-01-14T00:23:23.310Z,4.72
2018-01-14T00:24:23.203Z,4.71
2018-01-14T00:25:23.569Z,4.7
2018-01-14T00:26:23.642Z,4.69
2018-01-14T00:27:23.669Z,4.7
2018-01-14T00:28:23.016Z,4.67
2018-01-14T00:29:23.276Z,4.68
2018-01-14T00:30:23.297Z,4.67
2018-01-14T00:31:23.220Z,4.64
2018-01-14T00:32:23.320Z,4.66
2018-01-14T00:33:23.327Z,4.63
2018-01-14T00:34:23.259Z,4.62
2018-01-14T00:35:23.702Z,4.61
2018-01-14T00:36:23.300Z,4.62
2018-01-14T00:37:23.682Z,4.6
2018-01-14T00:38:23.089Z,4.58
2018-01-14T00:39:23.436Z,4.58
2018-01-14T00:40:23.259Z,4.59
2018-01-14T00:41:23.405Z,4.61
2018-01-14T00:42:23.117Z,4.62
2018-01-14T00:43:23.424Z,4.61
2018-01-14T00:44:23.266Z,4.6
2018-01-14T00:45:23.412Z,4.6
2018-01-14T00:46:23.522Z,4.6
2018-01-14T00:47:23.421Z,4.6
2018-01-14T00:48:23.718Z,4.6
2018-01-14T00:49:23.649Z,4.6
2018-01-14T00:50:23.438Z,4.58
2018-01-14T00:51:23.495Z,4.57
2018-01-14T00:52:23.847Z,4.55
2018-01-14T00:53:23.429Z,4.54
2018-01-14T00:54:23.391Z,4.52
2018-01-14T00:55:23.299Z,4.53
2018-01-14T00:56:23.746Z,4.55
2018-01-14T00:57:23.341Z,4.56
2018-01-14T00:58:23.440Z,4.57
2018-01-14T00:59:23.528Z,4.52
2018-01-14T01:00:23.501Z,4.55
2018-01-14T01:01:23.517Z,4.51
2018-01-14T01:02:23.518Z,4.47
2018-01-14T01:03:23.245Z,4.46
2018-01-14T01:04:23.277Z,4.45
2018-01-14T01:05:23.263Z,4.44
2018-01-14T01:06:23.636Z,4.44
2018-01-14T01:07:23.504Z,4.42
2018-01-14T01:08:23.518Z,4.42
2018-01-14T01:09:23.389Z,4.42
2018-01-14T01:10:23.462Z,4.43
2018-01-14T01:11:23.364Z,4.39
2018-01-14T01:12:23.452Z,4.4
2018-01-14T01:13:23.461Z,4.38
2018-01-14T01:14:23.353Z,4.37
2018-01-14T01:15:23.525Z,4.37
2018-01-14T01:16:23.301Z,4.39
2018-01-14T01:17:23.418Z,4.38
2018-01-14T01:18:22.974Z,4.34
2018-01-14T01:19:23.536Z,4.34
2018-01-14T01:20:23.386Z,4.31
2018-01-14T01:21:24.055Z,4.33
2018-01-14T01:22:23.005Z,4.32
2018-01-14T01:23:23.432Z,4.33
2018-01-14T01:24:23.895Z,4.31
2018-01-14T01:25:23.462Z,4.31
2018-01-14T01:26:23.373Z,4.29
2018-01-14T01:27:23.658Z,4.27
2018-01-14T01:28:22.992Z,4.28
2018-01-14T01:29:23.347Z,4.29
2018-01-14T01:30:23.394Z,4.25
2018-01-14T01:31:23.380Z,4.26
2018-01-14T01:32:23.300Z,4.23
2018-01-14T01:33:23.523Z,4.23
2018-01-14T01:34:23.835Z,4.21
2018-01-14T01:35:23.248Z,4.21
2018-01-14T01:36:23.832Z,4.22
2018-01-14T01:37:23.447Z,4.2
2018-01-14T01:38:23.525Z,4.21
2018-01-14T01:39:23.354Z,4.2
2018-01-14T01:40:23.472Z,4.18
2018-01-14T01:41:23.444Z,4.17
2018-01-14T01:42:23.290Z,4.16
2018-01-14T01:43:23.379Z,4.14
2018-01-14T01:44:23.560Z,4.14
2018-01-14T01:45:23.570Z,4.11
2018-01-14T01:46:23.607Z,4.12
2018-01-14T01:47:23.414Z,4.12
2018-01-14T01:48:23.728Z,4.1
2018-01-14T01:49:23.015Z,4.09
2018-01-14T01:50:23.015Z,4.1
2018-01-14T01:51:23.743Z,4.12
2018-01-14T01:52:23.589Z,4.1
2018-01-14T01:53:23.024Z,4.1
2018-01-14T01:54:23.867Z,4.1
2018-01-14T01:55:23.050Z,4.1
2018-01-14T01:56:23.790Z,4.1
2018-01-14T01:57:23.577Z,4.1
2018-01-14T01:58:23.575Z,4.09
2018-01-14T01:59:23.577Z,4.08
2018-01-14T02:00:23.442Z,4.09
2018-01-14T02:01:23.538Z,4.09
2018-01-14T02:02:23.155Z,4.07
2018-01-14T02:03:23.803Z,4.05
2018-01-14T02:04:23.449Z,4.03
2018-01-14T02:05:23.558Z,4.03
2018-01-14T02:06:23.119Z,4.04
2018-01-14T02:07:23.016Z,4.04
2018-01-14T02:08:23.698Z,4.07
2018-01-14T02:09:23.765Z,4.06
2018-01-14T02:10:23.162Z,4.06
2018-01-14T02:11:23.704Z,4.05
2018-01-14T02:12:23.120Z,4.03
2018-01-14T02:13:23.202Z,4.01
2018-01-14T02:14:24.518Z,4.01
2018-01-14T02:15:23.050Z,3.99
2018-01-14T02:16:23.097Z,3.97
2018-01-14T02:17:23.639Z,3.98
2018-01-14T02:18:23.558Z,3.95
2018-01-14T02:19:23.776Z,3.94
2018-01-14T02:20:23.716Z,3.92
2018-01-14T02:21:23.758Z,3.92
2018-01-14T02:22:23.470Z,3.9
2018-01-14T02:23:23.363Z,3.91
2018-01-14T02:24:23.652Z,3.9
2018-01-14T02:25:23.133Z,3.9
2018-01-14T02:26:23.575Z,3.87
2018-01-14T02:27:24.061Z,3.86
2018-01-14T02:28:23.512Z,3.85
2018-01-14T02:29:23.148Z,3.84
2018-01-14T02:30:23.890Z,3.84
2018-01-14T02:31:23.419Z,3.83
2018-01-14T02:32:23.229Z,3.81
2018-01-14T02:35:23.086Z,3.8
2018-01-14T02:36:23.653Z,3.78
2018-01-14T02:37:23.504Z,3.76
2018-01-14T02:38:22.402Z,3.77
2018-01-14T02:39:22.478Z,3.78
2018-01-14T02:40:22.541Z,3.78
2018-01-14T02:41:22.523Z,3.78
2018-01-14T02:42:22.463Z,3.78
2018-01-14T02:43:22.411Z,3.78
2018-01-14T02:44:22.532Z,3.79
2018-01-14T02:45:22.549Z,3.79
2018-01-14T02:46:22.507Z,3.75
2018-01-14T02:47:22.550Z,3.72
2018-01-14T02:48:22.756Z,3.73
2018-01-14T02:49:22.516Z,3.72
2018-01-14T02:50:22.472Z,3.73
2018-01-14T02:51:22.539Z,3.72
2018-01-14T02:52:22.545Z,3.7
2018-01-14T02:53:22.607Z,3.7
2018-01-14T02:54:22.550Z,3.71
2018-01-14T02:55:22.634Z,3.66
2018-01-14T02:56:22.477Z,3.66
2018-01-14T02:57:22.686Z,3.68
2018-01-14T02:58:22.602Z,3.66
2018-01-14T02:59:22.625Z,3.67
2018-01-14T03:00:22.644Z,3.68
2018-01-14T03:01:22.568Z,3.67
2018-01-14T03:02:22.635Z,3.67
2018-01-14T03:03:22.480Z,3.64
2018-01-14T03:04:22.572Z,3.62
2018-01-14T03:05:22.553Z,3.61
2018-01-14T03:06:22.518Z,3.6
2018-01-14T03:07:22.592Z,3.6
2018-01-14T03:08:22.494Z,3.61
2018-01-14T03:09:22.503Z,3.59
2018-01-14T03:10:22.612Z,3.58
2018-01-14T03:11:22.547Z,3.58
2018-01-14T03:12:22.568Z,3.58
2018-01-14T03:13:22.536Z,3.6
2018-01-14T03:14:22.531Z,3.6
2018-01-14T03:15:22.681Z,3.58
2018-01-14T03:16:22.617Z,3.57
2018-01-14T03:17:22.780Z,3.58
2018-01-14T03:18:23.167Z,3.57
2018-01-14T03:19:22.548Z,3.57
2018-01-14T03:20:23.178Z,3.58
2018-01-14T03:21:22.753Z,3.57
2018-01-14T03:22:22.640Z,3.56
2018-01-14T03:23:22.598Z,3.56
2018-01-14T03:24:22.601Z,3.56
2018-01-14T03:25:22.702Z,3.54
2018-01-14T03:26:22.619Z,3.52
2018-01-14T03:27:22.577Z,3.51
2018-01-14T03:28:22.793Z,3.51
2018-01-14T03:29:22.700Z,3.52
2018-01-14T03:30:22.596Z,3.46
2018-01-14T03:31:22.688Z,3.47
2018-01-14T03:32:22.694Z,3.48
2018-01-14T03:33:22.573Z,3.5
2018-01-14T03:34:22.607Z,3.47
2018-01-14T03:35:22.725Z,3.46
2018-01-14T03:36:22.607Z,3.47
2018-01-14T03:37:22.787Z,3.47
2018-01-14T03:38:22.608Z,3.47
2018-01-14T03:39:22.652Z,3.47
2018-01-14T03:40:22.798Z,3.44
2018-01-14T03:41:22.678Z,3.4
2018-01-14T03:42:22.734Z,3.43
2018-01-14T03:43:22.708Z,3.44
2018-01-14T03:44:22.792Z,3.41
2018-01-14T03:45:22.867Z,3.43
2018-01-14T03:46:22.798Z,3.42
2018-01-14T03:47:22.601Z,3.38
2018-01-14T03:48:22.758Z,3.41
2018-01-14T03:49:22.715Z,3.37
2018-01-14T03:50:22.810Z,3.35
2018-01-14T03:51:22.644Z,3.36
2018-01-14T03:52:22.618Z,3.38
2018-01-14T03:53:22.695Z,3.37
2018-01-14T03:54:23.440Z,3.32
2018-01-14T03:55:22.579Z,3.33
2018-01-14T03:56:22.830Z,3.32
2018-01-14T03:57:22.914Z,3.29
2018-01-14T03:58:22.715Z,3.26
2018-01-14T03:59:22.766Z,3.27
2018-01-14T04:00:22.609Z,3.25
2018-01-14T04:01:22.795Z,3.26
2018-01-14T04:02:22.850Z,3.28
2018-01-14T04:03:22.614Z,3.27
2018-01-14T04:04:22.633Z,3.27
2018-01-14T04:05:22.664Z,3.29
2018-01-14T04:06:22.635Z,3.28
2018-01-14T04:07:22.646Z,3.27
2018-01-14T04:08:22.638Z,3.29
2018-01-14T04:09:22.665Z,3.28
2018-01-14T04:10:22.744Z,3.27
2018-01-14T04:11:22.599Z,3.28
2018-01-14T04:12:22.667Z,3.28
2018-01-14T04:13:22.643Z,3.26
2018-01-14T04:14:22.644Z,3.28
2018-01-14T04:15:22.673Z,3.29
2018-01-14T04:16:22.683Z,3.29
2018-01-14T04:17:22.676Z,3.26
2018-01-14T04:18:22.677Z,3.26
2018-01-14T04:19:22.660Z,3.28
2018-01-14T04:20:22.654Z,3.27
2018-01-14T04:21:22.721Z,3.27
2018-01-14T04:22:22.707Z,3.27
2018-01-14T04:23:22.701Z,3.25
2018-01-14T04:24:22.671Z,3.26
2018-01-14T04:25:22.700Z,3.26
2018-01-14T04:26:22.656Z,3.27
2018-01-14T04:27:22.714Z,3.26
2018-01-14T04:28:22.735Z,3.27
2018-01-14T04:29:22.730Z,3.28
2018-01-14T04:30:22.654Z,3.26
2018-01-14T04:31:22.660Z,3.24
2018-01-14T04:32:22.669Z,3.22
2018-01-14T04:33:22.742Z,3.21
2018-01-14T04:34:22.741Z,3.22
2018-01-14T04:35:22.688Z,3.22
2018-01-14T04:36:22.705Z,3.21
2018-01-14T04:37:22.731Z,3.22
2018-01-14T04:38:22.666Z,3.21
2018-01-14T04:39:22.698Z,3.24
2018-01-14T04:40:22.703Z,3.26
2018-01-14T04:41:22.739Z,3.26
2018-01-14T04:42:22.658Z,3.23
2018-01-14T04:43:22.674Z,3.21
2018-01-14T04:44:22.727Z,3.24
2018-01-14T04:45:22.746Z,3.24
2018-01-14T04:46:22.753Z,3.21
2018-01-14T04:47:22.708Z,3.18
2018-01-14T04:48:22.727Z,3.21
2018-01-14T04:49:22.762Z,3.17
2018-01-14T04:50:22.734Z,3.16
2018-01-14T04:51:22.732Z,3.18
2018-01-14T04:52:22.752Z,3.2
2018-01-14T04:53:22.735Z,3.19
2018-01-14T04:54:22.690Z,3.2
2018-01-14T04:55:22.727Z,3.2
2018-01-14T04:56:22.732Z,3.19
2018-01-14T04:57:22.716Z,3.18
2018-01-14T04:58:22.737Z,3.2
2018-01-14T04:59:22.709Z,3.16
2018-01-14T05:00:22.751Z,3.13
2018-01-14T05:01:22.770Z,3.16
2018-01-14T05:02:22.754Z,3.16
2018-01-14T05:03:22.708Z,3.17
2018-01-14T05:04:22.719Z,3.18
2018-01-14T05:05:22.751Z,3.16
2018-01-14T05:06:22.756Z,3.17
2018-01-14T05:07:22.719Z,3.18
2018-01-14T05:08:22.703Z,3.17
2018-01-14T05:09:22.709Z,3.16
2018-01-14T05:10:22.718Z,3.17
2018-01-14T05:11:22.725Z,3.15
2018-01-14T05:12:22.762Z,3.15
2018-01-14T05:13:22.715Z,3.16
2018-01-14T05:14:22.687Z,3.17
2018-01-14T05:15:22.867Z,3.16
2018-01-14T05:16:22.804Z,3.17
2018-01-14T05:17:22.865Z,3.19
2018-01-14T05:18:22.792Z,3.2
2018-01-14T05:19:22.765Z,3.16
2018-01-14T05:20:22.772Z,3.2
2018-01-14T05:21:22.790Z,3.2
2018-01-14T05:22:22.832Z,3.24
2018-01-14T05:23:22.839Z,3.23
2018-01-14T05:24:22.851Z,3.19
2018-01-14T05:25:22.773Z,3.19
2018-01-14T05:26:22.784Z,3.16
2018-01-14T05:27:22.799Z,3.19
2018-01-14T05:28:22.850Z,3.19
2018-01-14T05:29:22.833Z,3.17
2018-01-14T05:30:22.795Z,3.15
2018-01-14T05:31:22.803Z,3.13
2018-01-14T05:32:22.779Z,3.11
2018-01-14T05:33:22.804Z,3.1
2018-01-14T05:34:22.849Z,3.11
2018-01-14T05:35:22.772Z,3.11
2018-01-14T05:36:22.778Z,3.1
2018-01-14T05:37:22.805Z,3.08
2018-01-14T05:38:22.804Z,3.1
2018-01-14T05:39:22.948Z,3.09
2018-01-14T05:40:22.816Z,3.07
2018-01-14T05:41:22.815Z,3.04
2018-01-14T05:42:22.798Z,3.07
2018-01-14T05:43:22.780Z,3.06
2018-01-14T05:44:22.788Z,3.07
2018-01-14T05:45:22.923Z,3.05
2018-01-14T05:46:22.857Z,3.04
2018-01-14T05:47:22.870Z,3.03
2018-01-14T05:48:22.879Z,3.04
2018-01-14T05:49:22.883Z,3.04
2018-01-14T05:50:22.898Z,3.05
2018-01-14T05:51:22.834Z,3.03
2018-01-14T05:52:22.906Z,3.04
2018-01-14T05:53:22.865Z,3.03
2018-01-14T05:54:22.878Z,3.02
2018-01-14T05:55:22.859Z,3.04
2018-01-14T05:56:22.876Z,3.03
2018-01-14T05:57:22.830Z,3.04
2018-01-14T05:58:22.882Z,3.03
2018-01-14T05:59:22.956Z,3.04
2018-01-14T06:00:22.886Z,3.04
2018-01-14T06:01:22.861Z,3.04
2018-01-14T06:02:22.857Z,3.07
2018-01-14T06:03:22.818Z,3.07
2018-01-14T06:04:22.881Z,3.05
2018-01-14T06:05:23.123Z,3.07
2018-01-14T06:06:22.845Z,3.07
2018-01-14T06:07:22.850Z,3.06
2018-01-14T06:08:22.921Z,3.06
2018-01-14T06:09:22.856Z,3.04
2018-01-14T06:10:22.898Z,3.06
2018-01-14T06:11:22.931Z,3.06
2018-01-14T06:12:22.846Z,3.06
2018-01-14T06:13:22.884Z,3.07
2018-01-14T06:14:22.874Z,3.07
2018-01-14T06:15:22.920Z,3.06
2018-01-14T06:16:22.899Z,3.07
2018-01-14T06:17:22.912Z,3.05
2018-01-14T06:18:22.919Z,3.07
2018-01-14T06:19:22.887Z,3.06
2018-01-14T06:20:22.876Z,3.1
2018-01-14T06:21:22.905Z,3.1
2018-01-14T06:22:23.046Z,3.09
2018-01-14T06:23:22.921Z,3.06
2018-01-14T06:24:22.896Z,3.09
2018-01-14T06:25:22.892Z,3.1
2018-01-14T06:26:22.904Z,3.12
2018-01-14T06:27:22.937Z,3.12
2018-01-14T06:28:22.911Z,3.11
2018-01-14T06:29:22.914Z,3.07
2018-01-14T06:30:22.871Z,3.07
2018-01-14T06:31:22.911Z,3.07
2018-01-14T06:32:22.950Z,3.05
2018-01-14T06:33:22.865Z,3.05
2018-01-14T06:34:22.872Z,3.04
2018-01-14T06:35:22.903Z,3.05
2018-01-14T06:36:22.876Z,3.06
2018-01-14T06:37:23.054Z,3.04
2018-01-14T06:38:22.924Z,3.06
2018-01-14T06:39:22.911Z,3.08
2018-01-14T06:40:22.915Z,3.1
2018-01-14T06:41:22.870Z,3.12
2018-01-14T06:42:22.936Z,3.11
2018-01-14T06:43:22.929Z,3.11
2018-01-14T06:44:22.924Z,3.1
2018-01-14T06:45:22.983Z,3.1
2018-01-14T06:46:22.950Z,3.11
2018-01-14T06:47:22.991Z,3.12
2018-01-14T06:48:22.979Z,3.11
2018-01-14T06:49:22.966Z,3.11
2018-01-14T06:50:22.951Z,3.14
2018-01-14T06:51:23.019Z,3.13
2018-01-14T06:52:22.972Z,3.14
2018-01-14T06:53:23.002Z,3.13
2018-01-14T06:54:23.013Z,3.16
2018-01-14T06:55:22.927Z,3.14
2018-01-14T06:56:22.984Z,3.12
2018-01-14T06:57:22.930Z,3.12
2018-01-14T06:58:22.957Z,3.09
2018-01-14T06:59:22.981Z,3.09
2018-01-14T07:00:23.122Z,3.08
2018-01-14T07:01:22.969Z,3.08
2018-01-14T07:02:22.952Z,3.08
2018-01-14T07:03:22.995Z,3.07
2018-01-14T07:04:22.950Z,3.07
2018-01-14T07:05:23.022Z,3.1
2018-01-14T07:06:23.031Z,3.11
2018-01-14T07:07:22.995Z,3.1
2018-01-14T07:08:22.966Z,3.07
2018-01-14T07:09:23.013Z,3.07
2018-01-14T07:10:23.021Z,3.07
2018-01-14T07:11:22.986Z,3.07
2018-01-14T07:12:22.986Z,3.09
2018-01-14T07:13:22.989Z,3.08
2018-01-14T07:14:22.957Z,3.09
2018-01-14T07:15:23.128Z,3.07
2018-01-14T07:16:23.060Z,3.08
2018-01-14T07:17:23.082Z,3.09
2018-01-14T07:18:23.045Z,3.08
2018-01-14T07:19:23.098Z,3.07
2018-01-14T07:20:23.089Z,3.03
2018-01-14T07:21:23.068Z,3.03
2018-01-14T07:22:23.070Z,3.03
2018-01-14T07:23:23.052Z,3.02
2018-01-14T07:24:23.075Z,3.02
2018-01-14T07:25:23.636Z,3
2018-01-14T07:26:23.028Z,3.02
2018-01-14T07:27:23.071Z,3.02
2018-01-14T07:28:23.077Z,3.01
2018-01-14T07:29:23.079Z,3.01
2018-01-14T07:30:23.061Z,3.02
2018-01-14T07:31:23.201Z,3
2018-01-14T07:32:23.040Z,3.01
2018-01-14T07:33:23.075Z,3.01
2018-01-14T07:34:23.119Z,3
2018-01-14T07:35:23.057Z,3.01
2018-01-14T07:36:23.080Z,3.01
2018-01-14T07:37:23.058Z,3.01
2018-01-14T07:38:23.053Z,3.01
2018-01-14T07:39:23.075Z,3.01
2018-01-14T07:40:23.025Z,3.02
2018-01-14T07:41:23.035Z,3.02
2018-01-14T07:42:23.094Z,3.06
2018-01-14T07:43:23.177Z,3.05
2018-01-14T07:44:23.028Z,3.04
2018-01-14T07:45:23.194Z,3.03
2018-01-14T07:46:23.198Z,3.02
2018-01-14T07:47:23.181Z,3.03
2018-01-14T07:48:23.223Z,3.01
2018-01-14T07:49:23.158Z,3
2018-01-14T07:50:23.134Z,3.01
2018-01-14T07:51:23.150Z,2.98
2018-01-14T07:52:23.213Z,2.99
2018-01-14T07:53:23.163Z,2.96
2018-01-14T07:54:23.165Z,2.94
2018-01-14T07:55:23.139Z,2.93
2018-01-14T07:56:23.164Z,2.93
2018-01-14T07:57:23.149Z,2.95
2018-01-14T07:58:23.256Z,2.9
2018-01-14T07:59:23.190Z,2.89
2018-01-14T08:00:23.188Z,2.89
2018-01-14T08:01:23.157Z,2.88
2018-01-14T08:02:23.163Z,2.9
2018-01-14T08:03:23.192Z,2.92
2018-01-14T08:04:23.150Z,2.92
2018-01-14T08:05:23.157Z,2.92
2018-01-14T08:06:23.179Z,2.92
2018-01-14T08:07:23.123Z,2.94
2018-01-14T08:08:23.251Z,2.96
2018-01-14T08:09:23.149Z,2.94
2018-01-14T08:10:23.185Z,2.95
2018-01-14T08:11:23.176Z,2.99
2018-01-14T08:12:23.151Z,2.98
2018-01-14T08:13:23.173Z,3
2018-01-14T08:14:23.214Z,3.02
2018-01-14T08:15:23.274Z,3
2018-01-14T08:16:22.250Z,3.01
2018-01-14T08:17:22.295Z,3
2018-01-14T08:18:22.244Z,3
2018-01-14T08:19:22.296Z,3.02
2018-01-14T08:20:22.556Z,2.95
2018-01-14T08:21:22.297Z,2.96
2018-01-14T08:22:22.267Z,2.97
2018-01-14T08:23:22.298Z,2.96
2018-01-14T08:24:22.255Z,2.98
2018-01-14T08:25:22.289Z,2.98
2018-01-14T08:26:22.228Z,2.98
2018-01-14T08:27:22.291Z,2.97
2018-01-14T08:28:22.240Z,2.94
2018-01-14T08:29:22.275Z,2.96
2018-01-14T08:30:22.231Z,2.94
2018-01-14T08:31:22.236Z,2.96
2018-01-14T08:32:22.222Z,3.01
2018-01-14T08:33:22.256Z,2.99
2018-01-14T08:34:22.219Z,3
2018-01-14T08:35:22.513Z,3
2018-01-14T08:36:22.233Z,2.99
2018-01-14T08:37:22.260Z,3
2018-01-14T08:38:22.236Z,3.03
2018-01-14T08:39:22.268Z,3.03
2018-01-14T08:40:22.246Z,3.05
2018-01-14T08:41:22.318Z,3.04
2018-01-14T08:42:22.237Z,3.03
2018-01-14T08:43:22.245Z,3.03
2018-01-14T08:44:22.235Z,3.04
2018-01-14T08:45:22.345Z,3.04
2018-01-14T08:46:22.295Z,3.07
2018-01-14T08:47:22.294Z,3.05
2018-01-14T08:48:22.302Z,3.04
2018-01-14T08:49:22.259Z,3.03
2018-01-14T08:50:22.405Z,3.04
2018-01-14T08:51:22.258Z,3.04
2018-01-14T08:52:22.327Z,3.05
2018-01-14T08:53:22.365Z,3.02
2018-01-14T08:54:22.367Z,3.04
2018-01-14T08:55:22.297Z,3.05
2018-01-14T08:56:22.294Z,3.06
2018-01-14T08:57:22.275Z,3.07
2018-01-14T08:58:22.268Z,3.07
2018-01-14T08:59:22.288Z,3.07
2018-01-14T09:00:22.257Z,3.08
2018-01-14T09:01:22.314Z,3.1
2018-01-14T09:02:22.327Z,3.11
2018-01-14T09:03:22.262Z,3.13
2018-01-14T09:04:22.270Z,3.13
2018-01-14T09:05:22.300Z,3.14
2018-01-14T09:06:22.272Z,3.13
2018-01-14T09:07:22.369Z,3.13
2018-01-14T09:08:22.284Z,3.15
2018-01-14T09:09:22.305Z,3.13
2018-01-14T09:10:22.311Z,3.14
2018-01-14T09:11:22.356Z,3.15
2018-01-14T09:12:22.340Z,3.14
2018-01-14T09:13:22.287Z,3.16
2018-01-14T09:14:22.306Z,3.14
2018-01-14T09:15:22.474Z,3.13
2018-01-14T09:16:22.378Z,3.14
2018-01-14T09:17:22.421Z,3.15
2018-01-14T09:18:22.377Z,3.14
2018-01-14T09:19:22.333Z,3.17
2018-01-14T09:20:22.342Z,3.14
2018-01-14T09:21:22.310Z,3.17
2018-01-14T09:22:22.364Z,3.16
2018-01-14T09:23:22.344Z,3.18
2018-01-14T09:24:22.380Z,3.18
2018-01-14T09:25:22.356Z,3.18
2018-01-14T09:26:22.406Z,3.18
2018-01-14T09:27:22.519Z,3.18
2018-01-14T09:28:22.379Z,3.19
2018-01-14T09:29:22.343Z,3.21
2018-01-14T09:30:22.371Z,3.22
2018-01-14T09:31:22.322Z,3.22
2018-01-14T09:32:22.432Z,3.22
2018-01-14T09:33:22.351Z,3.25
2018-01-14T09:34:22.354Z,3.24
2018-01-14T09:35:22.314Z,3.26
2018-01-14T09:36:22.387Z,3.25
2018-01-14T09:37:22.399Z,3.27
2018-01-14T09:38:22.765Z,3.29
2018-01-14T09:39:22.330Z,3.29
2018-01-14T09:40:22.387Z,3.31
2018-01-14T09:41:22.374Z,3.27
2018-01-14T09:42:22.421Z,3.25
2018-01-14T09:43:22.419Z,3.27
2018-01-14T09:44:22.389Z,3.27
2018-01-14T09:45:22.376Z,3.26
2018-01-14T09:46:22.431Z,3.28
2018-01-14T09:47:22.392Z,3.28
2018-01-14T09:48:22.476Z,3.29
2018-01-14T09:49:22.447Z,3.32
2018-01-14T09:50:22.417Z,3.3
2018-01-14T09:51:22.415Z,3.31
2018-01-14T09:52:22.419Z,3.33
2018-01-14T09:53:22.415Z,3.36
2018-01-14T09:54:22.446Z,3.38
2018-01-14T09:55:22.442Z,3.38
2018-01-14T09:56:22.445Z,3.38
2018-01-14T09:57:22.483Z,3.39
2018-01-14T09:58:22.422Z,3.41
2018-01-14T09:59:22.484Z,3.42
2018-01-14T10:00:22.502Z,3.44
2018-01-14T10:01:22.493Z,3.42
2018-01-14T10:02:22.428Z,3.42
2018-01-14T10:03:22.446Z,3.43
2018-01-14T10:04:22.527Z,3.42
2018-01-14T10:05:22.535Z,3.43
2018-01-14T10:06:22.422Z,3.46
2018-01-14T10:07:22.536Z,3.47
2018-01-14T10:08:22.462Z,3.48
2018-01-14T10:09:22.751Z,3.53
2018-01-14T10:10:22.493Z,3.53
2018-01-14T10:11:22.532Z,3.53
2018-01-14T10:12:22.567Z,3.54
2018-01-14T10:13:22.484Z,3.55
2018-01-14T10:14:22.503Z,3.54
2018-01-14T10:15:22.484Z,3.52
2018-01-14T10:16:22.534Z,3.51
2018-01-14T10:17:22.470Z,3.52
2018-01-14T10:18:22.402Z,3.54
2018-01-14T10:19:22.406Z,3.55
2018-01-14T10:20:22.519Z,3.55
2018-01-14T10:21:22.456Z,3.55
2018-01-14T10:22:22.401Z,3.56
2018-01-14T10:23:22.437Z,3.57
2018-01-14T10:24:22.434Z,3.57
2018-01-14T10:25:22.769Z,3.58
2018-01-14T10:26:23.135Z,3.59
2018-01-14T10:27:22.469Z,3.62
2018-01-14T10:28:22.440Z,3.59
2018-01-14T10:29:22.436Z,3.63
2018-01-14T10:30:22.429Z,3.66
2018-01-14T10:31:22.402Z,3.68
2018-01-14T10:32:22.453Z,3.67
2018-01-14T10:33:22.491Z,3.67
2018-01-14T10:34:22.460Z,3.67
2018-01-14T10:35:22.490Z,3.68
2018-01-14T10:36:22.427Z,3.72
2018-01-14T10:37:22.438Z,3.71
2018-01-14T10:38:22.457Z,3.72
2018-01-14T10:39:22.458Z,3.72
2018-01-14T10:40:22.746Z,3.74
2018-01-14T10:41:22.460Z,3.74
2018-01-14T10:42:26.099Z,3.77
2018-01-14T10:43:22.474Z,3.78
2018-01-14T10:44:22.480Z,3.79
2018-01-14T10:45:24.431Z,3.8
2018-01-14T10:46:23.161Z,3.8
2018-01-14T10:47:22.563Z,3.78
2018-01-14T10:48:22.542Z,3.81
2018-01-14T10:49:22.615Z,3.8
2018-01-14T10:50:23.088Z,3.78
2018-01-14T10:51:22.528Z,3.81
2018-01-14T10:52:22.538Z,3.83
2018-01-14T10:53:22.502Z,3.85
2018-01-14T10:54:22.536Z,3.86
2018-01-14T10:55:22.510Z,3.87
2018-01-14T10:56:22.548Z,3.89
2018-01-14T10:57:22.555Z,3.88
2018-01-14T10:58:22.512Z,3.91
2018-01-14T10:59:26.369Z,3.93
2018-01-14T11:00:22.538Z,3.95
2018-01-14T11:01:22.551Z,3.97
2018-01-14T11:02:22.553Z,3.96
2018-01-14T11:03:22.494Z,3.98
2018-01-14T11:04:22.500Z,4.01
2018-01-14T11:05:23.961Z,4
2018-01-14T11:06:23.819Z,3.99
2018-01-14T11:07:11.975Z,4.07
2018-01-14T11:08:12.039Z,4.04
2018-01-14T11:09:12.849Z,4.04
2018-01-14T11:10:11.863Z,4.02
2018-01-14T11:11:11.856Z,4.02
2018-01-14T11:12:13.082Z,4.05
2018-01-14T11:13:12.047Z,4.06
2018-01-14T11:14:11.853Z,4.07
2018-01-14T11:15:11.809Z,4.05
2018-01-14T11:16:11.836Z,4.07
2018-01-14T11:17:11.822Z,4.08
2018-01-14T11:18:11.937Z,4.06
2018-01-14T11:19:11.846Z,4.08
2018-01-14T11:20:11.905Z,4.07
2018-01-14T11:21:11.853Z,4.07
2018-01-14T11:22:11.874Z,4.09
2018-01-14T11:23:11.868Z,4.07
2018-01-14T11:24:12.020Z,4.07
2018-01-14T11:25:11.910Z,4.09
2018-01-14T11:26:11.908Z,4.11
2018-01-14T11:27:11.907Z,4.15
2018-01-14T11:28:11.882Z,4.12
2018-01-14T11:29:11.991Z,4.13
2018-01-14T11:30:11.845Z,4.15
2018-01-14T11:31:11.841Z,4.17
2018-01-14T11:32:11.874Z,4.15
2018-01-14T11:33:11.865Z,4.16
2018-01-14T11:34:11.898Z,4.19
2018-01-14T11:35:11.872Z,4.2
2018-01-14T11:36:11.834Z,4.22
2018-01-14T11:37:11.929Z,4.21
2018-01-14T11:38:11.896Z,4.21
2018-01-14T11:39:11.914Z,4.23
2018-01-14T11:40:11.962Z,4.23
2018-01-14T11:41:11.929Z,4.26
2018-01-14T11:42:11.897Z,4.27
2018-01-14T11:43:12.030Z,4.28
2018-01-14T11:44:11.948Z,4.29
2018-01-14T11:45:11.942Z,4.32
2018-01-14T11:46:11.907Z,4.32
2018-01-14T11:47:11.885Z,4.33
2018-01-14T11:48:11.920Z,4.33
2018-01-14T11:49:11.899Z,4.31
2018-01-14T11:50:11.951Z,4.33
2018-01-14T11:51:12.046Z,4.33
2018-01-14T11:52:11.939Z,4.29
2018-01-14T11:53:11.928Z,4.34
2018-01-14T11:54:11.918Z,4.35
2018-01-14T11:55:11.924Z,4.36
2018-01-14T11:56:12.061Z,4.38
2018-01-14T11:57:11.916Z,4.38
2018-01-14T11:58:11.903Z,4.39
2018-01-14T11:59:11.936Z,4.41
2018-01-14T12:00:11.961Z,4.41
2018-01-14T12:01:11.968Z,4.41
2018-01-14T12:02:11.950Z,4.39
2018-01-14T12:03:11.887Z,4.4
2018-01-14T12:04:11.893Z,4.41
2018-01-14T12:05:11.916Z,4.4
2018-01-14T12:06:11.940Z,4.4
2018-01-14T12:07:11.949Z,4.42
2018-01-14T12:08:11.948Z,4.4
2018-01-14T12:09:11.935Z,4.41
2018-01-14T12:10:11.948Z,4.4
2018-01-14T12:11:12.127Z,4.36
2018-01-14T12:12:11.965Z,4.36
2018-01-14T12:13:11.946Z,4.34
2018-01-14T12:14:03.646Z,4.4
2018-01-14T12:15:03.600Z,4.34
2018-01-14T12:16:03.589Z,4.33
2018-01-14T12:17:03.636Z,4.34
2018-01-14T12:18:03.579Z,4.33
2018-01-14T12:19:03.564Z,4.33
2018-01-14T12:20:03.585Z,4.33
2018-01-14T12:21:03.565Z,4.34
2018-01-14T12:22:03.599Z,4.3
2018-01-14T12:23:03.597Z,4.33
2018-01-14T12:24:03.572Z,4.3
2018-01-14T12:25:03.551Z,4.29
2018-01-14T12:26:03.554Z,4.33
2018-01-14T12:27:03.605Z,4.33
2018-01-14T12:28:03.593Z,4.33
2018-01-14T12:29:03.612Z,4.33
2018-01-14T12:30:03.590Z,4.34
2018-01-14T12:31:03.573Z,4.34
2018-01-14T12:32:03.739Z,4.36
2018-01-14T12:33:03.626Z,4.36
2018-01-14T12:34:03.618Z,4.38
2018-01-14T12:35:03.585Z,4.4
2018-01-14T12:36:03.565Z,4.4
2018-01-14T12:37:03.703Z,4.39
2018-01-14T12:38:03.582Z,4.4
2018-01-14T12:39:03.554Z,4.42
2018-01-14T12:40:03.602Z,4.44
2018-01-14T12:41:03.607Z,4.45
2018-01-14T12:42:03.641Z,4.45
2018-01-14T12:43:03.667Z,4.47
2018-01-14T12:44:03.655Z,4.46
2018-01-14T12:45:03.634Z,4.46
2018-01-14T12:46:03.627Z,4.47
2018-01-14T12:47:03.634Z,4.5
2018-01-14T12:48:03.759Z,4.48
2018-01-14T12:49:03.651Z,4.47
2018-01-14T12:50:03.630Z,4.49
2018-01-14T12:51:03.665Z,4.49
2018-01-14T12:52:03.615Z,4.48
2018-01-14T12:53:03.703Z,4.49
2018-01-14T12:54:03.635Z,4.49
2018-01-14T12:55:03.655Z,4.47
2018-01-14T12:56:03.643Z,4.47
2018-01-14T12:57:03.628Z,4.48
2018-01-14T12:58:03.734Z,4.49
2018-01-14T12:59:03.638Z,4.5
2018-01-14T13:00:03.636Z,4.47
2018-01-14T13:01:03.734Z,4.47
2018-01-14T13:02:03.667Z,4.45
2018-01-14T13:03:03.733Z,4.45
2018-01-14T13:04:03.658Z,4.44
2018-01-14T13:05:03.647Z,4.43
2018-01-14T13:06:03.692Z,4.45
2018-01-14T13:07:03.739Z,4.45
2018-01-14T13:08:03.753Z,4.46
2018-01-14T13:09:03.738Z,4.48
2018-01-14T13:10:03.695Z,4.47
2018-01-14T13:11:03.647Z,4.5
2018-01-14T13:12:03.667Z,4.5
2018-01-14T13:13:03.701Z,4.51
2018-01-14T13:14:03.755Z,4.49
2018-01-14T13:15:03.677Z,4.49
2018-01-14T13:16:03.684Z,4.49
2018-01-14T13:17:03.701Z,4.51
2018-01-14T13:18:05.370Z,4.51
2018-01-14T13:19:04.531Z,4.5
2018-01-14T13:20:03.699Z,4.5
2018-01-14T13:21:03.682Z,4.51
2018-01-14T13:22:03.707Z,4.52
2018-01-14T13:23:03.703Z,4.52
2018-01-14T13:24:03.984Z,4.53